sensor_id;sensor_type;location;lat;lon;timestamp;pressure;altitude;pressure_sealevel;temperature;humidity
47670;BME280;33408;52.062;11.722;2023-03-15T00:01:33;100442.94;;;1.51;100.00
47670;BME280;33408;52.062;11.722;2023-03-15T00:04:00;100451.47;;;1.53;100.00
47670;BME280;33408;52.062;11.722;2023-03-15T00:06:26;100453.91;;;1.42;100.00
47670;BME280;33408;52.062;11.722;2023-03-15T00:08:53;100453.97;;;1.47;100.00
47670;BME280;33408;52.062;11.722;2023-03-15T00:11:19;100458.19;;;1.46;100.00
47670;BME280;33408;52.062;11.722;2023-03-15T00:13:46;100455.53;;;1.40;100.00
47670;BME280;33408;52.062;11.722;2023-03-15T00:16:13;100461.47;;;1.36;100.00
47670;BME280;33408;52.062;11.722;2023-03-15T00:18:43;100466.72;;;1.48;100.00
47670;BME280;33408;52.062;11.722;2023-03-15T00:21:11;100468.28;;;1.37;100.00
47670;BME280;33408;52.062;11.722;2023-03-15T00:23:38;100468.28;;;1.38;100.00
47670;BME280;33408;52.062;11.722;2023-03-15T00:26:04;100476.75;;;1.34;100.00
47670;BME280;33408;52.062;11.722;2023-03-15T00:28:31;100475.09;;;1.38;100.00
47670;BME280;33408;52.062;11.722;2023-03-15T00:31:05;100474.22;;;1.34;100.00
47670;BME280;33408;52.062;11.722;2023-03-15T00:33:33;100475.03;;;1.33;100.00
47670;BME280;33408;52.062;11.722;2023-03-15T00:36:03;100476.88;;;1.40;100.00
47670;BME280;33408;52.062;11.722;2023-03-15T00:38:30;100478.34;;;1.26;100.00
47670;BME280;33408;52.062;11.722;2023-03-15T00:40:58;100478.22;;;1.18;100.00
47670;BME280;33408;52.062;11.722;2023-03-15T00:43:24;100478.41;;;1.29;100.00
47670;BME280;33408;52.062;11.722;2023-03-15T00:45:51;100481.66;;;1.20;100.00
47670;BME280;33408;52.062;11.722;2023-03-15T00:48:17;100483.44;;;1.24;100.00
47670;BME280;33408;52.062;11.722;2023-03-15T00:50:44;100490.97;;;1.17;100.00
47670;BME280;33408;52.062;11.722;2023-03-15T00:53:12;100502.81;;;1.13;100.00
47670;BME280;33408;52.062;11.722;2023-03-15T00:55:39;100500.00;;;0.98;100.00
47670;BME280;33408;52.062;11.722;2023-03-15T00:58:06;100508.50;;;0.95;100.00
47670;BME280;33408;52.062;11.722;2023-03-15T01:00:33;100508.00;;;1.18;100.00
47670;BME280;33408;52.062;11.722;2023-03-15T01:03:00;100507.97;;;1.16;100.00
47670;BME280;33408;52.062;11.722;2023-03-15T01:05:26;100506.22;;;1.14;100.00
47670;BME280;33408;52.062;11.722;2023-03-15T01:07:53;100512.09;;;1.08;100.00
47670;BME280;33408;52.062;11.722;2023-03-15T01:10:21;100517.25;;;1.13;100.00
47670;BME280;33408;52.062;11.722;2023-03-15T01:12:47;100506.19;;;1.11;100.00
47670;BME280;33408;52.062;11.722;2023-03-15T01:15:14;100517.19;;;1.06;100.00
47670;BME280;33408;52.062;11.722;2023-03-15T01:17:41;100515.47;;;1.05;100.00
47670;BME280;33408;52.062;11.722;2023-03-15T01:20:09;100515.41;;;1.02;100.00
47670;BME280;33408;52.062;11.722;2023-03-15T01:22:37;100516.88;;;0.89;100.00
47670;BME280;33408;52.062;11.722;2023-03-15T01:25:04;100522.63;;;0.78;100.00
47670;BME280;33408;52.062;11.722;2023-03-15T01:27:32;100528.50;;;0.73;100.00
47670;BME280;33408;52.062;11.722;2023-03-15T01:29:59;100526.53;;;0.59;100.00
47670;BME280;33408;52.062;11.722;2023-03-15T01:32:26;100533.41;;;0.61;100.00
47670;BME280;33408;52.062;11.722;2023-03-15T01:34:52;100533.41;;;0.63;100.00
47670;BME280;33408;52.062;11.722;2023-03-15T01:37:19;100526.66;;;0.65;100.00
47670;BME280;33408;52.062;11.722;2023-03-15T01:39:49;100533.25;;;0.53;100.00
47670;BME280;33408;52.062;11.722;2023-03-15T01:42:16;100534.22;;;0.60;100.00
47670;BME280;33408;52.062;11.722;2023-03-15T01:44:56;100535.09;;;0.62;100.00
47670;BME280;33408;52.062;11.722;2023-03-15T01:47:24;100537.59;;;0.59;100.00
47670;BME280;33408;52.062;11.722;2023-03-15T01:49:56;100540.25;;;0.65;100.00
47670;BME280;33408;52.062;11.722;2023-03-15T01:52:25;100536.72;;;0.57;100.00
47670;BME280;33408;52.062;11.722;2023-03-15T01:54:56;100542.78;;;0.64;100.00
47670;BME280;33408;52.062;11.722;2023-03-15T01:57:29;100543.06;;;0.78;100.00
47670;BME280;33408;52.062;11.722;2023-03-15T02:00:06;100546.44;;;0.78;100.00
47670;BME280;33408;52.062;11.722;2023-03-15T02:02:37;100540.50;;;0.78;100.00
47670;BME280;33408;52.062;11.722;2023-03-15T02:05:07;100542.13;;;0.76;100.00
47670;BME280;33408;52.062;11.722;2023-03-15T02:07:38;100548.19;;;0.79;100.00
47670;BME280;33408;52.062;11.722;2023-03-15T02:10:17;100543.72;;;0.69;100.00
47670;BME280;33408;52.062;11.722;2023-03-15T02:12:49;100542.25;;;0.82;100.00
47670;BME280;33408;52.062;11.722;2023-03-15T02:15:19;100548.16;;;0.78;100.00
47670;BME280;33408;52.062;11.722;2023-03-15T02:17:47;100548.19;;;0.79;100.00
47670;BME280;33408;52.062;11.722;2023-03-15T02:20:22;100548.97;;;0.77;100.00
47670;BME280;33408;52.062;11.722;2023-03-15T02:22:54;100545.66;;;0.81;100.00
47670;BME280;33408;52.062;11.722;2023-03-15T02:25:27;100556.66;;;0.78;100.00
47670;BME280;33408;52.062;11.722;2023-03-15T02:28:00;100549.75;;;0.74;100.00
47670;BME280;33408;52.062;11.722;2023-03-15T02:30:27;100558.31;;;0.76;100.00
47670;BME280;33408;52.062;11.722;2023-03-15T02:32:53;100558.31;;;0.75;100.00
47670;BME280;33408;52.062;11.722;2023-03-15T02:35:23;100559.19;;;0.77;100.00
47670;BME280;33408;52.062;11.722;2023-03-15T02:37:50;100567.78;;;0.82;100.00
47670;BME280;33408;52.062;11.722;2023-03-15T02:40:19;100572.72;;;0.72;100.00
47670;BME280;33408;52.062;11.722;2023-03-15T02:42:47;100569.28;;;0.72;100.00
47670;BME280;33408;52.062;11.722;2023-03-15T02:45:18;100569.25;;;0.70;100.00
47670;BME280;33408;52.062;11.722;2023-03-15T02:47:46;100575.13;;;0.65;100.00
47670;BME280;33408;52.062;11.722;2023-03-15T02:50:13;100574.34;;;0.69;100.00
47670;BME280;33408;52.062;11.722;2023-03-15T02:52:40;100579.66;;;0.80;100.00
47670;BME280;33408;52.062;11.722;2023-03-15T02:55:07;100577.72;;;0.66;100.00
47670;BME280;33408;52.062;11.722;2023-03-15T02:57:34;100581.13;;;0.68;100.00
47670;BME280;33408;52.062;11.722;2023-03-15T03:00:01;100587.09;;;0.69;100.00
47670;BME280;33408;52.062;11.722;2023-03-15T03:02:39;100592.72;;;0.52;100.00
47670;BME280;33408;52.062;11.722;2023-03-15T03:05:06;100592.72;;;0.52;100.00
47670;BME280;33408;52.062;11.722;2023-03-15T03:07:32;100593.41;;;0.44;100.00
47670;BME280;33408;52.062;11.722;2023-03-15T03:10:00;100592.06;;;0.61;100.00
47670;BME280;33408;52.062;11.722;2023-03-15T03:12:27;100598.78;;;0.58;100.00
47670;BME280;33408;52.062;11.722;2023-03-15T03:14:53;100600.41;;;0.54;100.00
47670;BME280;33408;52.062;11.722;2023-03-15T03:17:21;100606.31;;;0.53;100.00
47670;BME280;33408;52.062;11.722;2023-03-15T03:19:49;100610.72;;;0.59;100.00
47670;BME280;33408;52.062;11.722;2023-03-15T03:22:16;100612.47;;;0.63;100.00
47670;BME280;33408;52.062;11.722;2023-03-15T03:24:43;100603.16;;;0.63;100.00
47670;BME280;33408;52.062;11.722;2023-03-15T03:27:10;100609.97;;;0.64;100.00
47670;BME280;33408;52.062;11.722;2023-03-15T03:29:39;100611.34;;;0.47;100.00
47670;BME280;33408;52.062;11.722;2023-03-15T03:32:06;100609.91;;;0.63;100.00
47670;BME280;33408;52.062;11.722;2023-03-15T03:34:33;100610.88;;;0.66;100.00
47670;BME280;33408;52.062;11.722;2023-03-15T03:37:01;100614.25;;;0.65;100.00
47670;BME280;33408;52.062;11.722;2023-03-15T03:39:28;100615.09;;;0.66;100.00
47670;BME280;33408;52.062;11.722;2023-03-15T03:41:55;100615.88;;;0.62;100.00
47670;BME280;33408;52.062;11.722;2023-03-15T03:44:21;100622.69;;;0.63;100.00
47670;BME280;33408;52.062;11.722;2023-03-15T03:46:48;100628.66;;;0.63;100.00
47670;BME280;33408;52.062;11.722;2023-03-15T03:49:15;100631.19;;;0.62;100.00
47670;BME280;33408;52.062;11.722;2023-03-15T03:51:41;100633.69;;;0.60;100.00
47670;BME280;33408;52.062;11.722;2023-03-15T03:54:09;100643.34;;;0.75;100.00
47670;BME280;33408;52.062;11.722;2023-03-15T03:56:36;100636.50;;;0.74;100.00
47670;BME280;33408;52.062;11.722;2023-03-15T03:59:03;100644.38;;;0.85;100.00
47670;BME280;33408;52.062;11.722;2023-03-15T04:01:31;100650.59;;;0.98;100.00
47670;BME280;33408;52.062;11.722;2023-03-15T04:03:57;100647.44;;;1.09;100.00
47670;BME280;33408;52.062;11.722;2023-03-15T04:06:24;100654.97;;;1.03;100.00
47670;BME280;33408;52.062;11.722;2023-03-15T04:08:51;100656.41;;;0.89;100.00
47670;BME280;33408;52.062;11.722;2023-03-15T04:11:19;100669.25;;;0.94;100.00
47670;BME280;33408;52.062;11.722;2023-03-15T04:13:46;100675.16;;;0.93;100.00
47670;BME280;33408;52.062;11.722;2023-03-15T04:16:13;100676.63;;;0.80;100.00
47670;BME280;33408;52.062;11.722;2023-03-15T04:18:40;100669.09;;;0.86;100.00
47670;BME280;33408;52.062;11.722;2023-03-15T04:21:06;100678.66;;;0.98;100.00
47670;BME280;33408;52.062;11.722;2023-03-15T04:23:35;100671.72;;;0.89;100.00
47670;BME280;33408;52.062;11.722;2023-03-15T04:26:02;100680.31;;;0.94;100.00
47670;BME280;33408;52.062;11.722;2023-03-15T04:28:31;100674.72;;;1.14;100.00
47670;BME280;33408;52.062;11.722;2023-03-15T04:30:57;100675.53;;;1.13;100.00
47670;BME280;33408;52.062;11.722;2023-03-15T04:33:24;100677.41;;;1.20;100.00
47670;BME280;33408;52.062;11.722;2023-03-15T04:35:51;100683.47;;;1.26;100.00
47670;BME280;33408;52.062;11.722;2023-03-15T04:38:18;100687.06;;;1.36;100.00
47670;BME280;33408;52.062;11.722;2023-03-15T04:40:51;100684.50;;;1.36;100.00
47670;BME280;33408;52.062;11.722;2023-03-15T04:43:19;100687.22;;;1.44;100.00
47670;BME280;33408;52.062;11.722;2023-03-15T04:45:47;100687.28;;;1.47;100.00
47670;BME280;33408;52.062;11.722;2023-03-15T04:48:14;100695.88;;;1.52;100.00
47670;BME280;33408;52.062;11.722;2023-03-15T04:50:40;100701.59;;;1.39;100.00
47670;BME280;33408;52.062;11.722;2023-03-15T04:53:07;100706.16;;;1.55;100.00
47670;BME280;33408;52.062;11.722;2023-03-15T04:55:33;100704.41;;;1.54;100.00
47670;BME280;33408;52.062;11.722;2023-03-15T04:58:00;100712.22;;;1.62;100.00
47670;BME280;33408;52.062;11.722;2023-03-15T05:00:27;100712.06;;;1.54;100.00
47670;BME280;33408;52.062;11.722;2023-03-15T05:02:54;100715.38;;;1.47;100.00
47670;BME280;33408;52.062;11.722;2023-03-15T05:05:22;100724.66;;;1.42;100.00
47670;BME280;33408;52.062;11.722;2023-03-15T05:07:49;100723.91;;;1.49;100.00
47670;BME280;33408;52.062;11.722;2023-03-15T05:10:16;100730.59;;;1.42;100.00
47670;BME280;33408;52.062;11.722;2023-03-15T05:12:43;100735.09;;;1.56;100.00
47670;BME280;33408;52.062;11.722;2023-03-15T05:15:10;100739.78;;;1.33;100.00
47670;BME280;33408;52.062;11.722;2023-03-15T05:17:37;100738.94;;;1.32;100.00
47670;BME280;33408;52.062;11.722;2023-03-15T05:20:06;100738.94;;;1.32;100.00
47670;BME280;33408;52.062;11.722;2023-03-15T05:22:36;100737.09;;;1.26;100.00
47670;BME280;33408;52.062;11.722;2023-03-15T05:25:03;100745.84;;;1.38;100.00
47670;BME280;33408;52.062;11.722;2023-03-15T05:27:29;100744.13;;;1.38;100.00
47670;BME280;33408;52.062;11.722;2023-03-15T05:29:57;100762.94;;;1.40;100.00
47670;BME280;33408;52.062;11.722;2023-03-15T05:32:23;100759.47;;;1.38;100.00
47670;BME280;33408;52.062;11.722;2023-03-15T05:34:51;100767.13;;;1.38;100.00
47670;BME280;33408;52.062;11.722;2023-03-15T05:37:20;100766.34;;;1.41;100.00
47670;BME280;33408;52.062;11.722;2023-03-15T05:39:46;100773.22;;;1.43;100.00
47670;BME280;33408;52.062;11.722;2023-03-15T05:42:13;100772.50;;;1.52;100.00
47670;BME280;33408;52.062;11.722;2023-03-15T05:44:40;100780.91;;;1.45;100.00
47670;BME280;33408;52.062;11.722;2023-03-15T05:47:07;100784.31;;;1.45;100.00
47670;BME280;33408;52.062;11.722;2023-03-15T05:49:33;100781.81;;;1.49;100.00
47670;BME280;33408;52.062;11.722;2023-03-15T05:52:00;100790.16;;;1.41;100.00
47670;BME280;33408;52.062;11.722;2023-03-15T05:54:28;100794.44;;;1.41;100.00
47670;BME280;33408;52.062;11.722;2023-03-15T05:56:55;100803.03;;;1.46;100.00
47670;BME280;33408;52.062;11.722;2023-03-15T05:59:22;100814.06;;;1.43;100.00
47670;BME280;33408;52.062;11.722;2023-03-15T06:01:48;100814.06;;;1.43;100.00
47670;BME280;33408;52.062;11.722;2023-03-15T06:04:15;100814.13;;;1.47;100.00
47670;BME280;33408;52.062;11.722;2023-03-15T06:06:42;100823.28;;;1.37;100.00
47670;BME280;33408;52.062;11.722;2023-03-15T06:09:08;100830.91;;;1.35;100.00
47670;BME280;33408;52.062;11.722;2023-03-15T06:11:36;100824.03;;;1.31;100.00
47670;BME280;33408;52.062;11.722;2023-03-15T06:14:03;100837.22;;;1.53;100.00
47670;BME280;33408;52.062;11.722;2023-03-15T06:16:29;100836.53;;;1.60;100.00
47670;BME280;33408;52.062;11.722;2023-03-15T06:18:56;100841.06;;;1.75;100.00
47670;BME280;33408;52.062;11.722;2023-03-15T06:21:23;100848.09;;;1.84;100.00
47670;BME280;33408;52.062;11.722;2023-03-15T06:23:49;100857.47;;;1.86;100.00
47670;BME280;33408;52.062;11.722;2023-03-15T06:26:16;100855.03;;;1.92;100.00
47670;BME280;33408;52.062;11.722;2023-03-15T06:28:44;100862.75;;;1.94;100.00
47670;BME280;33408;52.062;11.722;2023-03-15T06:31:12;100867.72;;;1.86;100.00
47670;BME280;33408;52.062;11.722;2023-03-15T06:33:39;100867.91;;;1.97;100.00
47670;BME280;33408;52.062;11.722;2023-03-15T06:36:06;100872.16;;;1.95;100.00
47670;BME280;33408;52.062;11.722;2023-03-15T06:38:33;100881.78;;;2.08;100.00
47670;BME280;33408;52.062;11.722;2023-03-15T06:41:03;100886.88;;;2.08;100.00
47670;BME280;33408;52.062;11.722;2023-03-15T06:43:30;100892.16;;;2.16;100.00
47670;BME280;33408;52.062;11.722;2023-03-15T06:45:58;100880.97;;;2.12;100.00
47670;BME280;33408;52.062;11.722;2023-03-15T06:48:26;100888.88;;;2.25;100.00
47670;BME280;33408;52.062;11.722;2023-03-15T06:50:53;100896.03;;;2.44;100.00
47670;BME280;33408;52.062;11.722;2023-03-15T06:53:19;100891.31;;;2.66;100.00
47670;BME280;33408;52.062;11.722;2023-03-15T06:55:46;100894.34;;;2.97;100.00
47670;BME280;33408;52.062;11.722;2023-03-15T06:58:15;100897.06;;;3.07;100.00
47670;BME280;33408;52.062;11.722;2023-03-15T07:00:42;100902.19;;;3.06;100.00
47670;BME280;33408;52.062;11.722;2023-03-15T07:03:10;100904.47;;;2.89;100.00
47670;BME280;33408;52.062;11.722;2023-03-15T07:05:37;100908.84;;;2.98;100.00
47670;BME280;33408;52.062;11.722;2023-03-15T07:08:03;100907.94;;;2.92;100.00
47670;BME280;33408;52.062;11.722;2023-03-15T07:10:30;100909.75;;;3.00;100.00
47670;BME280;33408;52.062;11.722;2023-03-15T07:12:57;100913.81;;;2.85;100.00
47670;BME280;33408;52.062;11.722;2023-03-15T07:15:23;100927.31;;;2.78;100.00
47670;BME280;33408;52.062;11.722;2023-03-15T07:17:50;100924.81;;;2.81;100.00
47670;BME280;33408;52.062;11.722;2023-03-15T07:20:18;100920.72;;;2.91;100.00
47670;BME280;33408;52.062;11.722;2023-03-15T07:22:44;100922.47;;;2.94;100.00
47670;BME280;33408;52.062;11.722;2023-03-15T07:25:11;100925.16;;;3.01;100.00
47670;BME280;33408;52.062;11.722;2023-03-15T07:27:38;100927.63;;;2.95;100.00
47670;BME280;33408;52.062;11.722;2023-03-15T07:30:05;100926.84;;;3.01;100.00
47670;BME280;33408;52.062;11.722;2023-03-15T07:32:33;100926.03;;;3.03;100.00
47670;BME280;33408;52.062;11.722;2023-03-15T07:35:00;100934.50;;;3.01;100.00
47670;BME280;33408;52.062;11.722;2023-03-15T07:37:28;100935.47;;;3.07;100.00
47670;BME280;33408;52.062;11.722;2023-03-15T07:39:54;100938.06;;;3.09;100.00
47670;BME280;33408;52.062;11.722;2023-03-15T07:42:22;100940.53;;;3.03;100.00
47670;BME280;33408;52.062;11.722;2023-03-15T07:44:49;100940.69;;;3.14;100.00
47670;BME280;33408;52.062;11.722;2023-03-15T07:47:15;100948.47;;;3.20;100.00
47670;BME280;33408;52.062;11.722;2023-03-15T07:49:42;100951.28;;;3.35;100.00
47670;BME280;33408;52.062;11.722;2023-03-15T07:52:09;100956.34;;;3.31;100.00
47670;BME280;33408;52.062;11.722;2023-03-15T07:54:37;100951.88;;;3.17;100.00
47670;BME280;33408;52.062;11.722;2023-03-15T07:57:04;100971.84;;;3.40;100.00
47670;BME280;33408;52.062;11.722;2023-03-15T07:59:30;100969.34;;;3.46;100.00
47670;BME280;33408;52.062;11.722;2023-03-15T08:01:57;100969.34;;;3.46;100.00
47670;BME280;33408;52.062;11.722;2023-03-15T08:04:26;100977.81;;;3.40;100.00
47670;BME280;33408;52.062;11.722;2023-03-15T08:06:53;100975.72;;;3.73;100.00
47670;BME280;33408;52.062;11.722;2023-03-15T08:09:19;100982.69;;;3.83;100.00
47670;BME280;33408;52.062;11.722;2023-03-15T08:11:47;100993.78;;;3.82;100.00
47670;BME280;33408;52.062;11.722;2023-03-15T08:14:14;100979.84;;;3.61;100.00
47670;BME280;33408;52.062;11.722;2023-03-15T08:16:40;100981.13;;;3.94;100.00
47670;BME280;33408;52.062;11.722;2023-03-15T08:19:07;100981.13;;;3.96;100.00
47670;BME280;33408;52.062;11.722;2023-03-15T08:21:33;100986.97;;;3.84;100.00
47670;BME280;33408;52.062;11.722;2023-03-15T08:24:00;100987.72;;;3.75;100.00
47670;BME280;33408;52.062;11.722;2023-03-15T08:26:27;100987.88;;;3.88;100.00
47670;BME280;33408;52.062;11.722;2023-03-15T08:28:55;100985.25;;;3.84;100.00
47670;BME280;33408;52.062;11.722;2023-03-15T08:31:22;100994.59;;;3.79;100.00
47670;BME280;33408;52.062;11.722;2023-03-15T08:33:49;100995.56;;;3.88;100.00
47670;BME280;33408;52.062;11.722;2023-03-15T08:36:20;100996.38;;;3.83;100.00
47670;BME280;33408;52.062;11.722;2023-03-15T08:38:46;101006.63;;;3.83;100.00
47670;BME280;33408;52.062;11.722;2023-03-15T08:41:13;101013.47;;;3.84;100.00
47670;BME280;33408;52.062;11.722;2023-03-15T08:43:39;101017.06;;;3.97;100.00
47670;BME280;33408;52.062;11.722;2023-03-15T08:46:07;101023.00;;;3.93;100.00
47670;BME280;33408;52.062;11.722;2023-03-15T08:48:34;101016.41;;;4.11;100.00
47670;BME280;33408;52.062;11.722;2023-03-15T08:51:01;101022.97;;;4.59;100.00
47670;BME280;33408;52.062;11.722;2023-03-15T08:53:28;101035.97;;;4.78;100.00
47670;BME280;33408;52.062;11.722;2023-03-15T08:55:55;101031.81;;;4.89;100.00
47670;BME280;33408;52.062;11.722;2023-03-15T08:58:22;101039.47;;;4.86;100.00
47670;BME280;33408;52.062;11.722;2023-03-15T09:00:49;101042.16;;;4.95;100.00
47670;BME280;33408;52.062;11.722;2023-03-15T09:03:17;101042.31;;;5.12;100.00
47670;BME280;33408;52.062;11.722;2023-03-15T09:05:44;101040.22;;;4.72;100.00
47670;BME280;33408;52.062;11.722;2023-03-15T09:08:11;101042.44;;;4.42;100.00
47670;BME280;33408;52.062;11.722;2023-03-15T09:10:45;101048.50;;;4.48;100.00
47670;BME280;33408;52.062;11.722;2023-03-15T09:13:11;101039.72;;;4.29;100.00
47670;BME280;33408;52.062;11.722;2023-03-15T09:15:38;101050.00;;;4.31;100.00
47670;BME280;33408;52.062;11.722;2023-03-15T09:18:04;101060.91;;;4.13;100.00
47670;BME280;33408;52.062;11.722;2023-03-15T09:20:33;101060.94;;;4.16;100.00
47670;BME280;33408;52.062;11.722;2023-03-15T09:22:59;101063.69;;;4.31;100.00
47670;BME280;33408;52.062;11.722;2023-03-15T09:25:26;101068.22;;;4.51;100.00
47670;BME280;33408;52.062;11.722;2023-03-15T09:27:53;101077.28;;;4.24;100.00
47670;BME280;33408;52.062;11.722;2023-03-15T09:30:19;101067.13;;;4.32;100.00
47670;BME280;33408;52.062;11.722;2023-03-15T09:32:47;101073.13;;;4.32;100.00
47670;BME280;33408;52.062;11.722;2023-03-15T09:35:15;101063.50;;;4.89;100.00
47670;BME280;33408;52.062;11.722;2023-03-15T09:37:43;101064.97;;;5.61;100.00
47670;BME280;33408;52.062;11.722;2023-03-15T09:40:15;101067.66;;;5.78;100.00
47670;BME280;33408;52.062;11.722;2023-03-15T09:42:54;101064.00;;;5.46;100.00
47670;BME280;33408;52.062;11.722;2023-03-15T09:45:26;101072.22;;;5.08;100.00
47670;BME280;33408;52.062;11.722;2023-03-15T09:47:59;101076.91;;;4.65;100.00
47670;BME280;33408;52.062;11.722;2023-03-15T09:50:31;101082.13;;;4.70;100.00
47670;BME280;33408;52.062;11.722;2023-03-15T09:53:04;101080.59;;;4.89;100.00
47670;BME280;33408;52.062;11.722;2023-03-15T09:55:34;101088.31;;;4.89;100.00
47670;BME280;33408;52.062;11.722;2023-03-15T09:58:02;101095.56;;;5.28;100.00
47670;BME280;33408;52.062;11.722;2023-03-15T10:00:36;101097.22;;;5.22;100.00
47670;BME280;33408;52.062;11.722;2023-03-15T10:03:03;101100.69;;;5.27;100.00
47670;BME280;33408;52.062;11.722;2023-03-15T10:05:38;101099.63;;;5.05;100.00
47670;BME280;33408;52.062;11.722;2023-03-15T10:08:10;101101.22;;;4.93;100.00
47670;BME280;33408;52.062;11.722;2023-03-15T10:10:45;101107.97;;;4.84;100.00
47670;BME280;33408;52.062;11.722;2023-03-15T10:13:24;101113.09;;;4.84;100.00
47670;BME280;33408;52.062;11.722;2023-03-15T10:16:02;101113.22;;;4.93;100.00
47670;BME280;33408;52.062;11.722;2023-03-15T10:18:46;101114.31;;;5.20;100.00
47670;BME280;33408;52.062;11.722;2023-03-15T10:21:33;101109.47;;;5.47;100.00
47670;BME280;33408;52.062;11.722;2023-03-15T10:24:11;101112.94;;;5.54;100.00
47670;BME280;33408;52.062;11.722;2023-03-15T10:26:41;101117.44;;;5.83;100.00
47670;BME280;33408;52.062;11.722;2023-03-15T10:29:13;101110.84;;;6.19;100.00
47670;BME280;33408;52.062;11.722;2023-03-15T10:31:42;101102.03;;;5.86;97.23
47670;BME280;33408;52.062;11.722;2023-03-15T10:34:15;101100.13;;;5.65;96.78
47670;BME280;33408;52.062;11.722;2023-03-15T10:36:47;101101.75;;;5.47;96.64
47670;BME280;33408;52.062;11.722;2023-03-15T10:39:15;101100.78;;;5.39;98.02
47670;BME280;33408;52.062;11.722;2023-03-15T10:41:45;101104.16;;;5.30;99.23
47670;BME280;33408;52.062;11.722;2023-03-15T10:44:14;101109.28;;;5.29;97.02
47670;BME280;33408;52.062;11.722;2023-03-15T10:47:02;101108.78;;;5.76;95.47
47670;BME280;33408;52.062;11.722;2023-03-15T10:49:35;101110.72;;;5.99;92.97
47670;BME280;33408;52.062;11.722;2023-03-15T10:52:03;101103.31;;;6.61;90.82
47670;BME280;33408;52.062;11.722;2023-03-15T10:54:32;101107.50;;;6.38;89.86
47670;BME280;33408;52.062;11.722;2023-03-15T10:57:02;101120.16;;;6.01;95.50
47670;BME280;33408;52.062;11.722;2023-03-15T10:59:31;101118.97;;;5.61;96.84
47670;BME280;33408;52.062;11.722;2023-03-15T11:02:18;101122.34;;;5.51;95.47
47670;BME280;33408;52.062;11.722;2023-03-15T11:04:48;101120.81;;;5.76;94.17
47670;BME280;33408;52.062;11.722;2023-03-15T11:07:15;101124.66;;;6.33;95.87
47670;BME280;33408;52.062;11.722;2023-03-15T11:09:50;101121.22;;;6.33;89.56
47670;BME280;33408;52.062;11.722;2023-03-15T11:12:21;101112.88;;;7.02;88.85
47670;BME280;33408;52.062;11.722;2023-03-15T11:14:50;101117.16;;;6.92;81.95
47670;BME280;33408;52.062;11.722;2023-03-15T11:17:19;101115.44;;;6.88;81.28
47670;BME280;33408;52.062;11.722;2023-03-15T11:19:52;101111.22;;;7.32;78.58
47670;BME280;33408;52.062;11.722;2023-03-15T11:22:20;101111.19;;;7.15;78.67
47670;BME280;33408;52.062;11.722;2023-03-15T11:24:48;101115.44;;;6.88;81.46
47670;BME280;33408;52.062;11.722;2023-03-15T11:27:16;101123.19;;;6.91;82.02
47670;BME280;33408;52.062;11.722;2023-03-15T11:29:47;101130.00;;;6.75;77.50
47670;BME280;33408;52.062;11.722;2023-03-15T11:32:16;101144.31;;;6.19;79.09
47670;BME280;33408;52.062;11.722;2023-03-15T11:34:49;101142.78;;;5.38;87.34
47670;BME280;33408;52.062;11.722;2023-03-15T11:37:21;101169.41;;;4.68;95.82
47670;BME280;33408;52.062;11.722;2023-03-15T11:39:53;101164.41;;;4.15;100.00
47670;BME280;33408;52.062;11.722;2023-03-15T11:42:25;101163.69;;;4.24;100.00
47670;BME280;33408;52.062;11.722;2023-03-15T11:44:57;101159.19;;;4.73;100.00
47670;BME280;33408;52.062;11.722;2023-03-15T11:47:38;101151.66;;;4.87;100.00
47670;BME280;33408;52.062;11.722;2023-03-15T11:50:10;101139.53;;;5.59;98.72
47670;BME280;33408;52.062;11.722;2023-03-15T11:52:38;101144.81;;;5.73;99.74
47670;BME280;33408;52.062;11.722;2023-03-15T11:55:16;101146.94;;;6.27;99.99
47670;BME280;33408;52.062;11.722;2023-03-15T11:57:44;101147.91;;;6.44;94.66
47670;BME280;33408;52.062;11.722;2023-03-15T12:00:24;101129.94;;;6.61;89.54
47670;BME280;33408;52.062;11.722;2023-03-15T12:02:54;101138.34;;;6.28;91.04
47670;BME280;33408;52.062;11.722;2023-03-15T12:05:40;101149.53;;;6.31;89.46
47670;BME280;33408;52.062;11.722;2023-03-15T12:08:22;101146.94;;;6.30;90.17
47670;BME280;33408;52.062;11.722;2023-03-15T12:10:51;101148.50;;;6.06;89.71
47670;BME280;33408;52.062;11.722;2023-03-15T12:13:28;101150.81;;;5.74;95.58
47670;BME280;33408;52.062;11.722;2023-03-15T12:15:56;101146.69;;;5.96;97.03
47670;BME280;33408;52.062;11.722;2023-03-15T12:18:39;101141.47;;;5.87;92.21
47670;BME280;33408;52.062;11.722;2023-03-15T12:21:16;101144.25;;;6.10;90.64
47670;BME280;33408;52.062;11.722;2023-03-15T12:23:55;101148.63;;;6.25;91.84
47670;BME280;33408;52.062;11.722;2023-03-15T12:26:38;101137.53;;;6.33;88.57
47670;BME280;33408;52.062;11.722;2023-03-15T12:29:17;101136.84;;;6.76;82.99
47670;BME280;33408;52.062;11.722;2023-03-15T12:31:51;101130.97;;;7.14;82.84
47670;BME280;33408;52.062;11.722;2023-03-15T12:34:25;101132.47;;;6.58;75.24
47670;BME280;33408;52.062;11.722;2023-03-15T12:36:55;101137.75;;;6.89;78.49
47670;BME280;33408;52.062;11.722;2023-03-15T12:39:39;101143.91;;;7.33;75.08
47670;BME280;33408;52.062;11.722;2023-03-15T12:42:13;101130.13;;;7.37;69.12
47670;BME280;33408;52.062;11.722;2023-03-15T12:44:43;101125.81;;;7.40;64.87
47670;BME280;33408;52.062;11.722;2023-03-15T12:47:11;101125.81;;;7.19;65.91
47670;BME280;33408;52.062;11.722;2023-03-15T12:49:40;101131.78;;;6.99;64.69